Currently 69°F in De Luz, California, USA
69°F
69°F / 60°F
calm
0.01"
Friday, November 17, 2017 11:12 AM PST

De Luz, California Weather Summary
Last 36 Hours

Temperature Winds Hourly Humidity Dewpoint
Time Report Norm Report Norm Max Gusts Precip. Rpt. Norm Rpt. Norm Pressure
1Fri 11:12 AM  68.6°F  71°F  calm  1 mph  none  0.00"  56%  42%  52°F  45°F  30.04"
2Fri 11:11 AM  68.6°F  71°F  calm  1 mph  1 mph  ----  56%  42%  52°F  45°F  30.04"
Fri 11:00 AM  66.9°F  70°F  calm  1 mph  none  0.00"  58%  42%  51°F  45°F  30.04"
Fri 10:01 AM  63.2°F  67°F  calm  calm  none  0.00"  76%  46%  55°F  45°F  30.06"
Fri 09:00 AM  61.6°F  63°F  calm  calm  none  0.01"  78%  52%  54°F  45°F  30.06"
Fri 08:02 AM  60.7°F  60°F  calm  calm  none  0.00"  74%  56%  52°F  43°F  30.04"
Fri 07:00 AM  60.1°F  56°F  calm  calm  3 mph  0.00"  71%  58%  50°F  41°F  30.02"
3Fri 06:23 AM  59.5°F  56°F  calm  calm  3 mph  ----  73%  59%  51°F  41°F  30.00"
Fri 06:01 AM  60.5°F  56°F  calm  calm  1 mph  0.00"  72%  59%  51°F  41°F  29.99"
Fri 05:00 AM  61.8°F  56°F  calm  calm  3 mph  0.00"  64%  59%  49°F  41°F  30.00"
Fri 04:01 AM  60.7°F  57°F  calm  calm  none  0.00"  64%  59%  48°F  42°F  29.99"
Fri 03:00 AM  60.7°F  57°F  calm  calm  none  0.00"  63%  59%  48°F  42°F  29.98"
Fri 02:01 AM  61.6°F  57°F  calm  calm  none  0.00"  60%  59%  47°F  42°F  29.97"
Fri 01:00 AM  63.2°F  57°F  calm  calm  none  0.00"  57%  58%  47°F  42°F  29.96"
Fri 12:00 AM  63.7°F  58°F  calm  calm  none  0.00"  56%  59%  47°F  43°F  29.96"
Thu 11:00 PM  64.5°F  58°F  calm  calm  none  0.00"  54%  59%  47°F  43°F  29.96"
Thu 10:01 PM  64.3°F  58°F  calm  calm  none  0.00"  56%  60%  48°F  44°F  29.96"
Thu 09:00 PM  64.7°F  58°F  calm  calm  none  0.00"  57%  61%  49°F  45°F  29.98"
Thu 08:01 PM  66.0°F  59°F  calm  calm  none  0.00"  54%  62%  48°F  45°F  29.95"
Thu 07:00 PM  67.3°F  59°F  calm  calm  1 mph  0.00"  51%  63%  48°F  46°F  29.95"
Thu 06:00 PM  69.4°F  60°F  calm  calm  none  0.00"  49%  61%  49°F  46°F  29.93"
Thu 05:00 PM  71.8°F  63°F  calm  1 mph  6 mph  0.00"  45%  56%  49°F  47°F  29.93"
Thu 04:01 PM  74.6°F  68°F  calm  1 mph  4 mph  0.00"  40%  48%  48°F  47°F  29.92"
Thu 03:01 PM  76.1°F  71°F  1 mph S  1 mph  5 mph  0.00"  34%  44%  45°F  47°F  29.91"
Thu 02:01 PM  76.5°F  72°F  1 mph S  1 mph  5 mph  0.00"  34%  41%  45°F  46°F  29.93"
Thu 01:00 PM  76.5°F  73°F  1 mph SW  1 mph  6 mph  0.00"  35%  39%  46°F  46°F  29.94"
Thu 12:03 PM  77.6°F  72°F  1 mph SW  1 mph  5 mph  0.00"  35%  39%  47°F  45°F  29.95"
Thu 11:00 AM  75.6°F  70°F  calm  1 mph  6 mph  0.00"  38%  41%  47°F  45°F  29.97"
Thu 10:00 AM  74.7°F  67°F  calm  calm  none  0.00"  48%  46%  53°F  45°F  29.98"
Thu 09:00 AM  70.1°F  63°F  calm  calm  none  0.00"  48%  51%  49°F  45°F  29.95"
Thu 08:00 AM  65.5°F  59°F  calm  calm  none  0.00"  48%  56%  45°F  43°F  29.95"
Thu 07:00 AM  62.1°F  56°F  calm  calm  none  0.00"  47%  58%  41°F  41°F  29.95"
Thu 06:01 AM  60.9°F  56°F  calm  calm  none  0.00"  49%  58%  41°F  41°F  29.93"
Thu 05:00 AM  62.4°F  56°F  calm  calm  none  0.00"  47%  58%  41°F  41°F  29.92"
Thu 04:01 AM  64.3°F  57°F  calm  calm  3 mph  0.00"  45%  58%  42°F  42°F  29.94"
Thu 03:00 AM  66.0°F  57°F  calm  calm  4 mph  0.00"  43%  58%  42°F  42°F  29.94"
Thu 02:00 AM  60.9°F  57°F  calm  calm  none  0.00"  44%  58%  38°F  42°F  29.95"
Thu 01:01 AM  62.1°F  57°F  calm  calm  none  0.00"  44%  57%  39°F  42°F  29.96"
Thu 12:01 AM  62.7°F  58°F  calm  calm  none  0.00"  43%  58%  39°F  42°F  29.97"

  1. Current weather data. No green row appears if the current weather data is also the high or low for the current day.
  2. High temperature for the current day.
  3. Low temperature for the current day.

The De Luz, California weather pages are a service of WeatherCurrents. De Luz is located west of the Temecula Valley and north of Fallbrook, on the Santa Rosa Plateau, in southwestern Riverside County, California.
Copyright ©Fri Nov 17 11:13:43 PST 2017  WeatherCurrents. All rights reserved. - Submit questions and comments - Privacy Policy

This page automatically refreshes every 10 minutes.